Time;durP1;ratioP1;P1;durP2;ratioP2;P2;SDS_P1;SDS_P2;PMS_P1;PMS_P2;Temp;Humidity;BMP_temperature;BMP_pressure;BME280_temperature;BME280_humidity;BME280_pressure;Samples;Min_cycle;Max_cycle;Signal;HPM_P1;HPM_P2
2023/07/26 00:01:25;;;;;;;5.63;2.13;;;16.20;99.90;;;;;;5030924;28;20071;-44
2023/07/26 00:03:55;;;;;;;7.22;2.25;;;16.20;99.90;;;;;;5031125;28;20087;-49
2023/07/26 00:06:20;;;;;;;7.28;2.47;;;16.20;99.90;;;;;;5031215;28;20017;-47
2023/07/26 00:08:46;;;;;;;3.25;1.90;;;16.20;99.90;;;;;;5030975;28;20048;-45
2023/07/26 00:11:11;;;;;;;4.20;2.08;;;16.20;99.90;;;;;;5031285;28;20108;-45
2023/07/26 00:13:37;;;;;;;2.72;1.80;;;16.10;99.90;;;;;;5031053;28;20033;-45
2023/07/26 00:16:02;;;;;;;4.18;1.83;;;16.00;99.90;;;;;;5013408;28;20025;-49
2023/07/26 00:18:28;;;;;;;8.48;2.25;;;16.00;99.90;;;;;;5039740;22;20049;-55
2023/07/26 00:20:53;;;;;;;6.82;2.20;;;16.00;99.90;;;;;;5016084;28;20032;-56
2023/07/26 00:23:19;;;;;;;3.35;2.10;;;16.00;99.90;;;;;;5014531;28;20030;-54
2023/07/26 00:25:44;;;;;;;4.72;1.83;;;16.10;99.90;;;;;;4997401;28;20395;-53
2023/07/26 00:28:10;;;;;;;3.22;1.55;;;16.10;99.90;;;;;;5013735;28;20054;-53
2023/07/26 00:30:35;;;;;;;5.10;2.55;;;16.10;99.90;;;;;;4996818;28;20049;-53
2023/07/26 00:33:01;;;;;;;8.30;1.60;;;16.00;99.90;;;;;;5014721;28;20025;-57
2023/07/26 00:35:31;;;;;;;3.50;1.80;;;16.10;99.90;;;;;;4997789;28;20037;-54
2023/07/26 00:37:57;;;;;;;10.25;2.10;;;16.00;99.90;;;;;;5014285;28;20091;-56
2023/07/26 00:40:23;;;;;;;13.20;4.82;;;15.90;99.90;;;;;;5015318;28;20445;-54
2023/07/26 00:42:48;;;;;;;4.05;1.67;;;15.90;99.90;;;;;;5015007;28;20508;-54
2023/07/26 00:45:14;;;;;;;5.88;1.70;;;15.90;99.90;;;;;;5014828;28;20029;-56
2023/07/26 00:47:39;;;;;;;6.95;2.25;;;16.00;99.90;;;;;;5015458;28;20037;-56
2023/07/26 00:50:05;;;;;;;3.50;1.75;;;16.00;99.90;;;;;;5015775;28;20025;-56
2023/07/26 00:52:31;;;;;;;5.40;1.75;;;16.10;99.90;;;;;;5015870;28;20030;-57
2023/07/26 00:55:00;;;;;;;7.80;1.77;;;16.10;99.90;;;;;;5015607;28;20030;-58
2023/07/26 00:57:25;;;;;;;1.95;1.40;;;16.00;99.90;;;;;;5015261;28;20436;-55
2023/07/26 00:59:51;;;;;;;4.53;1.70;;;16.00;99.90;;;;;;5015264;28;20021;-58
2023/07/26 01:02:16;;;;;;;3.58;1.40;;;16.00;99.90;;;;;;4997231;28;20025;-56
2023/07/26 01:04:42;;;;;;;2.78;1.60;;;16.00;99.90;;;;;;5015030;28;20401;-55
2023/07/26 01:07:14;;;;;;;7.07;1.45;;;16.00;99.90;;;;;;5015358;28;20090;-55
2023/07/26 01:09:55;;;;;;;1.65;1.40;;;16.00;99.90;;;;;;4996780;28;20026;-57
2023/07/26 01:12:26;;;;;;;1.55;1.42;;;16.10;99.90;;;;;;5016005;28;20025;-57
2023/07/26 01:14:57;;;;;;;3.03;1.52;;;16.00;99.90;;;;;;5017150;28;20037;-55
2023/07/26 01:17:23;;;;;;;1.70;1.60;;;15.90;99.90;;;;;;5015640;28;20044;-55
2023/07/26 01:19:48;;;;;;;1.98;1.25;;;15.90;99.90;;;;;;4998040;28;20030;-56
2023/07/26 01:22:14;;;;;;;2.30;1.48;;;15.80;99.90;;;;;;5016741;28;20082;-56
2023/07/26 01:24:39;;;;;;;3.20;1.38;;;15.90;99.90;;;;;;5017993;28;20028;-57
2023/07/26 01:27:05;;;;;;;2.22;1.80;;;15.80;99.90;;;;;;4999339;28;20057;-56
2023/07/26 01:29:31;;;;;;;3.75;1.60;;;15.80;99.90;;;;;;5017913;28;20106;-57
2023/07/26 01:31:57;;;;;;;5.72;1.67;;;15.80;99.90;;;;;;5017470;28;20033;-57
2023/07/26 01:34:23;;;;;;;6.75;1.80;;;15.80;99.90;;;;;;5000041;28;20026;-56
2023/07/26 01:36:51;;;;;;;2.92;1.55;;;15.80;99.90;;;;;;4999577;28;20026;-55
2023/07/26 01:39:18;;;;;;;3.60;1.80;;;15.70;99.90;;;;;;5017330;28;20017;-57
2023/07/26 01:41:44;;;;;;;3.03;2.00;;;15.70;99.90;;;;;;5000267;28;20053;-53
2023/07/26 01:44:11;;;;;;;2.60;1.63;;;15.70;99.90;;;;;;5000172;28;20030;-58
2023/07/26 01:46:36;;;;;;;4.05;1.75;;;15.60;99.90;;;;;;5017261;28;20041;-57
2023/07/26 01:49:02;;;;;;;5.03;1.90;;;15.50;99.90;;;;;;5017101;28;20052;-57
2023/07/26 01:51:27;;;;;;;4.40;2.17;;;15.50;99.90;;;;;;4999758;28;20501;-57
2023/07/26 01:53:53;;;;;;;3.97;1.67;;;15.50;99.90;;;;;;5017663;28;20034;-58
2023/07/26 01:56:18;;;;;;;2.55;1.70;;;15.90;99.90;;;;;;5016705;28;20113;-55
2023/07/26 01:58:44;;;;;;;4.40;2.05;;;15.30;99.90;;;;;;5016927;28;20046;-57
2023/07/26 02:01:09;;;;;;;5.05;1.90;;;15.20;99.90;;;;;;5017224;28;20105;-56
2023/07/26 02:03:35;;;;;;;3.95;1.88;;;15.10;99.90;;;;;;5016899;28;20036;-56
2023/07/26 02:06:00;;;;;;;5.03;2.00;;;15.00;99.90;;;;;;5017253;28;20026;-56
2023/07/26 02:08:26;;;;;;;8.18;2.58;;;15.00;99.90;;;;;;4999415;28;20022;-55
2023/07/26 02:10:52;;;;;;;3.10;1.92;;;14.90;99.90;;;;;;5017292;28;20018;-53
2023/07/26 02:13:17;;;;;;;13.05;2.30;;;14.80;99.90;;;;;;5017266;28;20042;-58
2023/07/26 02:15:43;;;;;;;2.95;1.75;;;14.80;99.90;;;;;;5016495;28;20038;-56
2023/07/26 02:18:09;;;;;;;5.10;1.90;;;14.70;99.90;;;;;;5016113;28;20516;-56
2023/07/26 02:20:34;;;;;;;5.30;2.05;;;14.70;99.90;;;;;;5017008;28;20034;-57
2023/07/26 02:23:00;;;;;;;6.10;1.60;;;14.70;99.90;;;;;;5016448;28;20045;-54
2023/07/26 02:25:26;;;;;;;5.15;1.60;;;14.70;99.90;;;;;;5016983;28;20033;-58
2023/07/26 02:27:51;;;;;;;3.50;1.88;;;14.50;99.90;;;;;;5016200;28;20056;-56
2023/07/26 02:30:17;;;;;;;2.45;1.90;;;14.40;99.90;;;;;;4998824;28;20026;-57
2023/07/26 02:32:42;;;;;;;4.22;2.22;;;14.40;99.90;;;;;;5016625;28;20030;-54
2023/07/26 02:35:08;;;;;;;5.20;1.88;;;14.30;99.90;;;;;;5016553;28;20033;-57
2023/07/26 02:37:34;;;;;;;7.35;1.73;;;14.40;99.90;;;;;;5016031;28;20026;-57
2023/07/26 02:39:59;;;;;;;6.72;2.00;;;14.30;99.90;;;;;;5017441;28;20036;-57
2023/07/26 02:42:26;;;;;;;7.22;2.03;;;14.30;99.90;;;;;;5017341;28;20032;-57
2023/07/26 02:44:53;;;;;;;5.75;1.92;;;14.30;99.90;;;;;;5016894;28;20503;-57
2023/07/26 02:47:19;;;;;;;4.43;1.70;;;14.30;99.90;;;;;;4998954;28;20097;-55
2023/07/26 02:49:44;;;;;;;3.78;1.90;;;14.40;99.90;;;;;;4999751;28;20068;-56
2023/07/26 02:52:10;;;;;;;6.97;1.85;;;14.40;99.90;;;;;;5018180;28;20045;-57
2023/07/26 02:54:35;;;;;;;4.05;2.22;;;14.40;99.90;;;;;;5017063;28;20033;-56
2023/07/26 02:57:01;;;;;;;5.97;2.40;;;14.30;99.90;;;;;;5018012;28;20026;-59
2023/07/26 02:59:26;;;;;;;4.50;1.73;;;14.40;99.90;;;;;;5017102;28;20026;-56
2023/07/26 03:01:52;;;;;;;6.55;2.25;;;14.40;99.90;;;;;;5017121;28;20018;-54
2023/07/26 03:04:18;;;;;;;8.18;3.00;;;14.30;99.90;;;;;;5016886;28;20032;-56
2023/07/26 03:06:43;;;;;;;5.00;1.95;;;14.30;99.90;;;;;;5016744;28;20026;-57
2023/07/26 03:09:09;;;;;;;4.20;1.92;;;14.30;99.90;;;;;;4998772;28;20022;-56
2023/07/26 03:11:36;;;;;;;3.40;2.08;;;14.30;99.90;;;;;;5016435;28;20018;-56
2023/07/26 03:14:01;;;;;;;5.25;1.92;;;14.40;99.90;;;;;;5016579;28;20076;-56
2023/07/26 03:16:27;;;;;;;4.00;1.83;;;14.30;99.90;;;;;;5015794;28;20025;-53
2023/07/26 03:18:52;;;;;;;3.38;1.55;;;14.30;99.90;;;;;;4998449;28;20037;-54
2023/07/26 03:21:18;;;;;;;7.70;1.83;;;14.30;99.90;;;;;;5016412;28;20073;-55
2023/07/26 03:23:43;;;;;;;4.78;2.28;;;14.40;99.90;;;;;;4998833;28;20021;-53
2023/07/26 03:26:09;;;;;;;3.28;1.88;;;14.40;99.90;;;;;;5016696;28;20022;-55
2023/07/26 03:28:35;;;;;;;5.15;1.63;;;14.60;99.90;;;;;;5015772;28;20034;-57
2023/07/26 03:31:00;;;;;;;2.20;1.98;;;14.30;99.90;;;;;;5016180;28;20022;-56
2023/07/26 03:33:26;;;;;;;4.53;1.80;;;14.30;99.90;;;;;;5015904;28;20505;-56
2023/07/26 03:35:52;;;;;;;3.70;1.70;;;14.40;99.90;;;;;;5015215;28;20575;-57
2023/07/26 03:38:18;;;;;;;4.35;1.67;;;14.30;99.90;;;;;;4997901;28;20030;-56
2023/07/26 03:40:43;;;;;;;2.08;1.60;;;14.30;99.90;;;;;;5016643;28;20026;-56
2023/07/26 03:43:09;;;;;;;3.28;2.92;;;14.30;99.90;;;;;;5015908;28;20053;-55
2023/07/26 03:45:35;;;;;;;2.78;1.88;;;14.30;99.90;;;;;;5016230;28;20096;-57
2023/07/26 03:48:00;;;;;;;5.32;2.13;;;14.40;99.90;;;;;;5015379;28;20025;-55
2023/07/26 03:50:26;;;;;;;2.80;1.75;;;14.40;99.90;;;;;;5015811;28;20034;-56
2023/07/26 03:52:52;;;;;;;8.43;2.13;;;14.50;99.90;;;;;;5015322;28;20041;-55
2023/07/26 03:55:17;;;;;;;4.18;1.92;;;14.50;99.90;;;;;;5014937;28;20027;-56
2023/07/26 03:57:43;;;;;;;6.22;1.77;;;14.40;99.90;;;;;;5015367;28;20034;-54
2023/07/26 04:00:09;;;;;;;3.47;1.70;;;14.40;99.90;;;;;;4998134;28;20622;-56
2023/07/26 04:02:35;;;;;;;5.22;1.98;;;14.40;99.90;;;;;;4997092;28;20026;-56
2023/07/26 04:05:00;;;;;;;6.82;2.13;;;14.30;99.90;;;;;;5015004;28;20026;-57
2023/07/26 04:07:26;;;;;;;4.10;2.25;;;14.30;99.90;;;;;;5014923;28;20025;-56
2023/07/26 04:09:51;;;;;;;4.30;2.05;;;14.30;99.90;;;;;;5015165;28;20049;-58
2023/07/26 04:12:17;;;;;;;3.03;1.92;;;14.30;99.90;;;;;;4997362;28;20268;-54
2023/07/26 04:14:42;;;;;;;5.25;2.50;;;14.50;99.90;;;;;;4997364;28;20022;-57
2023/07/26 04:17:08;;;;;;;2.85;1.85;;;14.40;99.90;;;;;;5014979;28;20038;-55
2023/07/26 04:19:33;;;;;;;13.93;2.22;;;14.50;99.90;;;;;;5015024;28;20029;-58
2023/07/26 04:21:59;;;;;;;2.95;2.25;;;14.40;99.90;;;;;;5015454;28;20037;-57
2023/07/26 04:24:25;;;;;;;4.32;2.17;;;14.30;99.90;;;;;;5014961;28;20033;-59
2023/07/26 04:26:52;;;;;;;7.38;2.97;;;14.30;99.90;;;;;;5014645;28;20058;-57
2023/07/26 04:29:18;;;;;;;3.50;1.60;;;14.40;99.90;;;;;;4996822;28;20022;-57
2023/07/26 04:31:43;;;;;;;2.42;2.25;;;14.40;99.90;;;;;;5015550;28;20053;-57
2023/07/26 04:34:09;;;;;;;4.53;2.05;;;14.40;99.90;;;;;;5014448;28;20033;-55
2023/07/26 04:36:34;;;;;;;2.72;1.77;;;14.40;99.90;;;;;;5014319;28;20026;-55
2023/07/26 04:39:00;;;;;;;3.72;2.00;;;14.40;99.90;;;;;;5013560;28;20393;-53
2023/07/26 04:41:25;;;;;;;4.40;1.73;;;14.40;99.90;;;;;;5013803;28;20026;-55
2023/07/26 04:43:51;;;;;;;4.43;1.92;;;14.40;99.90;;;;;;5013360;28;20061;-56
2023/07/26 04:46:17;;;;;;;7.30;2.30;;;14.30;99.90;;;;;;5014540;28;20037;-52
2023/07/26 04:48:42;;;;;;;5.10;2.00;;;14.40;99.90;;;;;;5016859;28;20117;-54
2023/07/26 04:51:08;;;;;;;4.05;2.00;;;14.50;99.90;;;;;;5017034;28;20385;-54
2023/07/26 04:53:33;;;;;;;6.45;1.88;;;14.60;99.90;;;;;;4999029;28;20030;-58
2023/07/26 04:55:59;;;;;;;3.28;1.67;;;14.50;99.90;;;;;;5016694;28;20504;-56
2023/07/26 04:58:24;;;;;;;3.55;1.92;;;14.50;99.90;;;;;;5017711;28;20272;-56
2023/07/26 05:00:50;;;;;;;3.70;1.65;;;14.60;99.90;;;;;;5018195;28;20034;-56
2023/07/26 05:03:16;;;;;;;2.80;1.85;;;14.60;99.90;;;;;;5017743;28;20473;-57
2023/07/26 05:05:47;;;;;;;3.85;1.85;;;14.60;99.90;;;;;;5017768;28;20030;-57
2023/07/26 05:08:13;;;;;;;4.78;2.00;;;14.60;99.90;;;;;;5017476;28;20036;-53
2023/07/26 05:10:38;;;;;;;5.18;2.08;;;14.70;99.90;;;;;;5017158;28;20485;-56
2023/07/26 05:13:04;;;;;;;3.03;1.77;;;14.70;99.90;;;;;;5017908;28;20034;-57
2023/07/26 05:15:30;;;;;;;2.22;1.92;;;14.70;99.90;;;;;;5019198;28;20029;-56
2023/07/26 05:17:55;;;;;;;1.73;1.63;;;14.70;99.90;;;;;;5016826;28;20041;-55
2023/07/26 05:20:21;;;;;;;4.03;2.08;;;14.70;99.90;;;;;;5017222;28;20030;-55
2023/07/26 05:22:46;;;;;;;4.10;1.80;;;14.70;99.90;;;;;;5017085;28;20401;-54
2023/07/26 05:25:12;;;;;;;9.68;2.20;;;14.80;99.90;;;;;;5017484;28;20018;-51
2023/07/26 05:27:37;;;;;;;5.22;2.20;;;14.80;99.90;;;;;;5016657;28;20026;-56
2023/07/26 05:30:03;;;;;;;2.00;1.85;;;14.80;99.90;;;;;;5016863;28;20026;-54
2023/07/26 05:32:29;;;;;;;4.60;2.55;;;14.90;99.90;;;;;;5017299;28;20064;-55
2023/07/26 05:34:56;;;;;;;2.58;1.83;;;14.90;99.90;;;;;;5017573;28;20033;-55
2023/07/26 05:37:22;;;;;;;4.22;1.80;;;15.00;99.90;;;;;;4999682;28;20030;-57
2023/07/26 05:39:49;;;;;;;2.05;1.60;;;15.10;99.90;;;;;;5017380;28;20362;-56
2023/07/26 05:42:14;;;;;;;2.75;1.95;;;15.10;99.90;;;;;;5017434;28;20044;-59
2023/07/26 05:44:40;;;;;;;3.92;2.58;;;15.20;99.90;;;;;;5017665;28;20481;-57
2023/07/26 05:47:06;;;;;;;3.55;2.60;;;15.20;99.90;;;;;;5017326;28;20029;-57
2023/07/26 05:49:31;;;;;;;4.45;2.38;;;15.30;99.90;;;;;;5017471;28;20037;-55
2023/07/26 05:51:57;;;;;;;9.88;3.00;;;15.30;99.90;;;;;;5017122;28;20112;-56
2023/07/26 05:54:23;;;;;;;5.20;2.80;;;15.20;99.90;;;;;;5016401;28;20095;-53
2023/07/26 05:56:48;;;;;;;3.80;2.22;;;15.30;99.90;;;;;;5015967;28;20535;-51
2023/07/26 05:59:14;;;;;;;3.03;2.45;;;15.30;99.90;;;;;;4998429;28;20061;-56
2023/07/26 06:01:40;;;;;;;5.70;2.72;;;15.30;99.90;;;;;;5016748;28;20106;-53
2023/07/26 06:04:05;;;;;;;4.78;2.60;;;15.30;99.90;;;;;;5016934;28;20034;-57
2023/07/26 06:06:31;;;;;;;5.22;2.97;;;15.40;99.90;;;;;;5017355;28;20269;-56
2023/07/26 06:08:57;;;;;;;3.63;2.60;;;15.40;99.90;;;;;;4998964;28;20099;-53
2023/07/26 06:11:23;;;;;;;6.40;2.92;;;15.50;99.90;;;;;;5017446;28;20022;-57
2023/07/26 06:13:48;;;;;;;6.38;2.80;;;15.50;99.90;;;;;;5016930;28;20109;-55
2023/07/26 06:16:14;;;;;;;2.88;2.20;;;15.50;99.90;;;;;;5017060;28;20033;-58
2023/07/26 06:18:40;;;;;;;11.02;3.42;;;15.50;99.90;;;;;;5035005;22;20061;-46
2023/07/26 06:21:05;;;;;;;4.72;2.72;;;15.50;99.90;;;;;;5013329;28;20018;-46
2023/07/26 06:23:31;;;;;;;5.13;3.35;;;15.50;99.90;;;;;;5013042;28;20037;-48
2023/07/26 06:25:56;;;;;;;3.97;2.65;;;15.50;99.90;;;;;;5013114;28;20041;-52
2023/07/26 06:28:22;;;;;;;6.45;2.90;;;15.40;99.90;;;;;;5012633;28;20291;-46
2023/07/26 06:30:48;;;;;;;4.05;2.50;;;15.40;99.90;;;;;;5013038;28;20105;-47
2023/07/26 06:33:13;;;;;;;2.97;2.38;;;15.40;99.90;;;;;;5013036;28;20026;-48
2023/07/26 06:35:39;;;;;;;5.70;2.67;;;15.50;99.90;;;;;;5013038;28;20114;-46
2023/07/26 06:38:05;;;;;;;7.43;3.10;;;15.50;99.90;;;;;;5012760;28;20050;-51
2023/07/26 06:40:30;;;;;;;2.88;2.30;;;15.50;99.90;;;;;;5013024;28;20060;-46
2023/07/26 06:42:56;;;;;;;5.82;2.75;;;15.60;99.90;;;;;;5012862;28;20083;-47
2023/07/26 06:45:21;;;;;;;4.18;1.92;;;15.60;99.90;;;;;;5012781;28;20486;-47
2023/07/26 06:47:47;;;;;;;10.68;2.55;;;15.70;99.90;;;;;;4994837;28;20065;-47
2023/07/26 06:50:12;;;;;;;5.95;2.53;;;15.70;99.90;;;;;;5012826;28;20093;-45
2023/07/26 06:52:38;;;;;;;3.97;2.72;;;15.70;99.90;;;;;;5002329;28;20022;-48
2023/07/26 06:55:04;;;;;;;8.25;2.10;;;15.80;99.90;;;;;;5011855;28;20030;-51
2023/07/26 06:57:29;;;;;;;4.13;2.38;;;15.70;99.90;;;;;;5011868;28;20029;-46
2023/07/26 06:59:55;;;;;;;7.25;2.70;;;15.70;99.90;;;;;;5007128;28;20034;-47
2023/07/26 07:02:20;;;;;;;3.33;2.25;;;15.60;99.90;;;;;;5011906;28;20112;-48
2023/07/26 07:04:46;;;;;;;4.13;2.92;;;15.70;99.90;;;;;;5009986;28;20021;-49
2023/07/26 07:07:11;;;;;;;2.97;2.00;;;15.60;99.90;;;;;;5010033;28;20482;-45
2023/07/26 07:09:37;;;;;;;3.45;1.98;;;15.60;99.90;;;;;;5011528;28;20025;-48
2023/07/26 07:12:03;;;;;;;3.33;2.05;;;15.50;99.90;;;;;;5019293;28;20157;-44
2023/07/26 07:14:28;;;;;;;2.50;2.13;;;15.50;99.90;;;;;;5021598;28;20033;-44
2023/07/26 07:16:54;;;;;;;2.13;1.90;;;15.50;99.90;;;;;;5021817;28;20026;-48
2023/07/26 07:19:20;;;;;;;2.97;2.15;;;15.60;99.90;;;;;;5021873;28;20472;-47
2023/07/26 07:21:45;;;;;;;2.20;1.95;;;15.60;99.90;;;;;;5019112;28;20026;-45
2023/07/26 07:24:10;;;;;;;6.03;2.08;;;15.60;99.90;;;;;;5027835;28;20029;-46
2023/07/26 07:26:36;;;;;;;4.07;1.83;;;15.60;99.90;;;;;;5031858;28;20029;-45
2023/07/26 07:29:02;;;;;;;3.10;2.10;;;15.60;99.90;;;;;;5031500;28;20030;-45
2023/07/26 07:31:27;;;;;;;4.72;2.05;;;15.60;99.90;;;;;;5032168;28;20026;-46
2023/07/26 07:33:53;;;;;;;2.88;1.98;;;15.70;99.90;;;;;;5031828;28;20029;-50
2023/07/26 07:36:19;;;;;;;2.95;2.00;;;15.80;99.90;;;;;;5032024;28;20025;-46
2023/07/26 07:38:45;;;;;;;3.80;2.58;;;15.90;99.90;;;;;;5031589;28;20385;-46
2023/07/26 07:41:12;;;;;;;2.38;1.80;;;16.00;99.90;;;;;;5031755;28;20446;-49
2023/07/26 07:43:38;;;;;;;3.10;2.20;;;16.10;99.90;;;;;;5031575;28;20033;-45
2023/07/26 07:46:04;;;;;;;3.22;2.03;;;16.20;99.90;;;;;;5031610;28;20026;-47
2023/07/26 07:48:29;;;;;;;5.63;2.33;;;16.30;99.90;;;;;;5031220;28;20045;-49
2023/07/26 07:50:55;;;;;;;4.32;2.05;;;16.60;99.90;;;;;;5013598;28;20025;-45
2023/07/26 07:53:22;;;;;;;3.30;2.35;;;16.70;99.90;;;;;;5031356;28;20029;-46
2023/07/26 07:55:47;;;;;;;4.57;2.63;;;17.00;99.90;;;;;;5032364;28;20022;-46
2023/07/26 07:58:13;;;;;;;5.18;2.05;;;17.70;99.90;;;;;;5031412;28;20025;-45
2023/07/26 08:00:39;;;;;;;4.88;1.73;;;18.60;99.90;;;;;;5031431;28;20036;-45
2023/07/26 08:03:05;;;;;;;8.25;1.60;;;19.20;99.90;;;;;;5031416;28;20132;-45
2023/07/26 08:05:32;;;;;;;2.95;1.50;;;20.10;99.90;;;;;;5031383;28;20025;-48
2023/07/26 08:07:58;;;;;;;2.03;1.23;;;20.70;99.90;;;;;;5030958;28;20033;-52
2023/07/26 08:10:23;;;;;;;3.33;1.35;;;21.20;99.90;;;;;;5031345;28;20421;-46
2023/07/26 08:12:49;;;;;;;1.58;1.30;;;21.10;99.90;;;;;;5031336;28;20037;-45
2023/07/26 08:15:15;;;;;;;2.83;1.40;;;20.80;99.90;;;;;;5031322;28;20037;-44
2023/07/26 08:17:40;;;;;;;2.42;1.20;;;20.80;99.90;;;;;;5031652;28;20030;-45
2023/07/26 08:20:07;;;;;;;3.92;1.73;;;20.70;99.90;;;;;;5031417;28;20030;-45
2023/07/26 08:22:32;;;;;;;2.22;1.40;;;20.70;99.90;;;;;;5034416;28;20030;-49
2023/07/26 08:24:58;;;;;;;1.80;1.33;;;20.90;99.90;;;;;;5035638;28;20117;-47
2023/07/26 08:27:23;;;;;;;2.72;1.67;;;21.00;99.90;;;;;;5034932;28;20504;-47
2023/07/26 08:29:49;;;;;;;4.25;1.70;;;20.80;99.90;;;;;;5017226;28;20136;-46
2023/07/26 08:32:15;;;;;;;2.72;1.52;;;20.70;99.90;;;;;;5035543;28;20104;-51
2023/07/26 08:34:40;;;;;;;6.47;1.83;;;20.60;99.90;;;;;;5034933;28;20021;-47
2023/07/26 08:37:06;;;;;;;2.83;1.95;;;20.50;99.90;;;;;;5034781;28;20026;-43
2023/07/26 08:39:31;;;;;;;2.25;1.30;;;20.40;99.90;;;;;;5034966;28;20013;-46
2023/07/26 08:41:58;;;;;;;1.48;1.30;;;20.30;99.90;;;;;;5017191;28;20017;-48
2023/07/26 08:44:24;;;;;;;1.50;1.40;;;20.10;99.90;;;;;;5034862;28;20057;-45
2023/07/26 08:46:51;;;;;;;5.78;1.60;;;20.00;99.90;;;;;;5035189;28;20025;-47
2023/07/26 08:49:17;;;;;;;3.53;1.40;;;19.90;99.90;;;;;;5016764;28;20400;-46
2023/07/26 08:51:43;;;;;;;4.03;1.90;;;19.80;99.90;;;;;;5034692;28;20028;-50
2023/07/26 08:54:09;;;;;;;1.20;1.10;;;19.90;99.90;;;;;;5034601;28;20369;-45
2023/07/26 08:56:35;;;;;;;3.65;1.30;;;20.00;99.90;;;;;;5022980;28;20088;-48
2023/07/26 08:59:01;;;;;;;3.30;1.52;;;20.20;99.90;;;;;;5014536;28;20026;-48
2023/07/26 09:01:27;;;;;;;2.05;1.75;;;20.40;99.90;;;;;;5014854;28;20034;-48
2023/07/26 09:03:53;;;;;;;3.80;1.85;;;20.50;99.90;;;;;;5005536;28;20084;-47
2023/07/26 09:06:19;;;;;;;3.40;1.55;;;20.80;99.90;;;;;;5003545;28;20056;-49
2023/07/26 09:08:44;;;;;;;1.50;1.40;;;21.00;99.90;;;;;;5008876;28;20040;-47
2023/07/26 09:11:24;;;;;;;4.03;1.80;;;20.70;99.90;;;;;;5013325;28;20030;-45
2023/07/26 09:13:58;;;;;;;3.20;1.80;;;20.90;99.90;;;;;;5013503;28;20531;-44
2023/07/26 09:16:28;;;;;;;3.95;2.03;;;20.90;99.60;;;;;;5013793;28;20458;-45
2023/07/26 09:19:02;;;;;;;2.00;1.50;;;20.70;99.90;;;;;;5013557;28;20037;-48
2023/07/26 09:21:37;;;;;;;2.97;2.60;;;;;;;;;;5013537;28;20022;-45
2023/07/26 09:24:07;;;;;;;2.92;1.50;;;;;;;;;;5010190;28;20034;-50
2023/07/26 09:26:36;;;;;;;2.13;1.90;;;;;;;;;;5013550;28;20537;-48
2023/07/26 09:29:08;;;;;;;4.18;1.77;;;;;;;;;;5013548;28;20037;-46
2023/07/26 09:31:35;;;;;;;5.07;1.90;;;;;;;;;;5008985;28;20026;-47
2023/07/26 09:34:04;;;;;;;6.22;2.05;;;;;;;;;;5014019;28;20026;-49
2023/07/26 09:36:54;;;;;;;2.70;1.67;;;;;;;;;;5022219;28;20052;-48
2023/07/26 09:39:24;;;;;;;2.83;1.90;;;;;;;;;;5012364;28;20034;-46
2023/07/26 09:41:51;;;;;;;4.18;1.48;;;;;;;;;;5033629;28;20416;-46
2023/07/26 09:44:19;;;;;;;2.53;1.95;;;19.90;99.90;;;;;;5034365;28;20030;-45
2023/07/26 09:46:55;;;;;;;1.80;1.50;;;19.90;99.90;;;;;;5034710;28;20025;-43
2023/07/26 09:49:22;;;;;;;2.33;1.70;;;20.10;99.90;;;;;;5033784;28;20575;-43
2023/07/26 09:51:48;;;;;;;2.35;1.73;;;20.20;99.90;;;;;;5033749;28;20109;-44
2023/07/26 09:54:14;;;;;;;2.10;1.65;;;20.10;99.90;;;;;;5022127;28;20465;-49
2023/07/26 09:56:41;;;;;;;3.30;1.63;;;20.40;99.90;;;;;;5025337;28;20079;-47
2023/07/26 09:59:11;;;;;;;2.88;1.80;;;20.50;99.90;;;;;;5033259;28;20029;-43
2023/07/26 10:01:45;;;;;;;3.70;1.80;;;20.70;99.90;;;;;;5033633;28;20092;-45
2023/07/26 10:04:22;;;;;;;5.05;2.63;;;20.70;99.90;;;;;;5022034;28;20030;-49
2023/07/26 10:06:50;;;;;;;5.53;2.00;;;20.40;99.90;;;;;;5033386;28;20384;-43
2023/07/26 10:09:16;;;;;;;3.22;1.73;;;20.40;99.90;;;;;;5033752;28;20399;-46
2023/07/26 10:11:44;;;;;;;5.57;2.08;;;20.20;99.90;;;;;;5021772;28;20097;-45
2023/07/26 10:14:11;;;;;;;4.68;1.77;;;20.20;99.90;;;;;;5012616;28;20045;-47
2023/07/26 10:16:38;;;;;;;4.20;2.35;;;20.20;99.90;;;;;;5013716;28;20026;-49
2023/07/26 10:19:05;;;;;;;5.95;3.00;;;20.20;99.90;;;;;;4995415;28;20045;-47
2023/07/26 10:21:31;;;;;;;21.52;16.35;;;20.00;99.90;;;;;;5013326;28;20033;-44
2023/07/26 10:24:00;;;;;;;8.05;3.75;;;19.90;99.90;;;;;;5018120;28;20061;-43
2023/07/26 10:26:28;;;;;;;3.35;2.35;;;20.90;99.90;;;;;;5024998;28;20030;-44
2023/07/26 10:28:59;;;;;;;11.48;2.40;;;19.80;99.90;;;;;;5033020;28;20496;-41
2023/07/26 10:31:28;;;;;;;4.20;2.03;;;19.70;99.90;;;;;;5033410;28;20029;-50
2023/07/26 10:33:54;;;;;;;3.20;1.90;;;19.90;99.90;;;;;;4997639;28;20049;-50
2023/07/26 10:36:21;;;;;;;2.78;2.00;;;19.90;99.90;;;;;;5024428;28;20072;-48
2023/07/26 10:38:48;;;;;;;3.75;2.25;;;20.00;99.90;;;;;;5014872;28;20028;-51
2023/07/26 10:41:24;;;;;;;3.85;1.85;;;19.80;99.90;;;;;;5015073;28;20036;-52
2023/07/26 10:43:59;;;;;;;2.75;2.05;;;19.80;99.90;;;;;;5017888;28;20026;-48
2023/07/26 10:46:25;;;;;;;3.95;1.90;;;19.60;99.90;;;;;;5024880;28;20032;-50
2023/07/26 10:48:52;;;;;;;3.08;1.83;;;19.70;99.90;;;;;;5014960;28;20025;-47
2023/07/26 10:51:31;;;;;;;2.30;1.90;;;19.80;99.90;;;;;;5012755;28;20124;-47
2023/07/26 10:53:58;;;;;;;2.05;1.55;;;21.40;99.90;;;;;;5015548;28;20025;-47
2023/07/26 10:56:31;;;;;;;3.10;1.63;;;20.30;99.90;;;;;;5002726;28;20026;-53
2023/07/26 10:59:16;;;;;;;5.30;2.97;;;20.60;99.90;;;;;;4992717;28;20037;-47
2023/07/26 11:01:44;;;;;;;2.22;1.70;;;20.90;99.90;;;;;;5010316;28;20029;-46
2023/07/26 11:04:15;;;;;;;3.05;2.40;;;21.30;99.90;;;;;;4998081;28;20044;-46
2023/07/26 11:06:59;;;;;;;4.53;2.15;;;21.20;99.90;;;;;;5023740;28;20104;-47
2023/07/26 11:09:27;;;;;;;1.98;1.80;;;21.30;99.90;;;;;;5025004;28;20475;-52
2023/07/26 11:11:59;;;;;;;7.00;2.33;;;21.30;99.90;;;;;;5019667;28;20104;-49
2023/07/26 11:14:28;;;;;;;5.82;3.08;;;21.30;99.90;;;;;;5022847;28;20071;-49
2023/07/26 11:16:54;;;;;;;3.10;2.00;;;21.20;99.90;;;;;;5023837;28;20040;-47
2023/07/26 11:19:20;;;;;;;2.15;1.90;;;21.40;99.90;;;;;;5013443;28;20033;-46
2023/07/26 11:21:46;;;;;;;5.20;2.45;;;21.20;99.90;;;;;;5025080;28;20426;-47
2023/07/26 11:24:11;;;;;;;4.40;2.20;;;21.20;99.90;;;;;;5006830;28;20021;-50
2023/07/26 11:26:45;;;;;;;3.55;1.83;;;21.00;99.90;;;;;;5031695;28;20029;-44
2023/07/26 11:29:11;;;;;;;2.35;1.90;;;21.20;99.90;;;;;;5014000;28;20026;-45
2023/07/26 11:31:37;;;;;;;3.38;2.50;;;21.30;99.90;;;;;;5032311;28;20105;-45
2023/07/26 11:34:14;;;;;;;2.83;2.03;;;21.40;99.90;;;;;;5031570;28;20505;-43
2023/07/26 11:36:40;;;;;;;2.28;1.83;;;21.30;99.90;;;;;;5031965;28;20075;-47
2023/07/26 11:39:06;;;;;;;3.45;2.15;;;21.00;99.90;;;;;;5031566;28;20493;-48
2023/07/26 11:41:31;;;;;;;4.28;2.75;;;20.90;99.90;;;;;;5031681;28;20024;-47
2023/07/26 11:43:58;;;;;;;6.28;2.45;;;20.10;99.90;;;;;;5032417;28;20029;-44
2023/07/26 11:46:28;;;;;;;9.88;3.55;;;19.20;99.90;;;;;;5031517;28;20496;-47
2023/07/26 11:48:54;;;;;;;5.57;2.47;;;18.20;99.90;;;;;;5031157;28;20026;-46
2023/07/26 11:51:20;;;;;;;5.55;2.55;;;17.40;99.90;;;;;;5013607;28;20413;-45
2023/07/26 11:53:47;;;;;;;6.03;2.20;;;16.90;99.90;;;;;;5031509;28;20476;-50
2023/07/26 11:56:13;;;;;;;2.20;2.00;;;16.60;99.90;;;;;;5030785;28;20029;-47
2023/07/26 11:58:41;;;;;;;3.10;2.25;;;16.50;99.90;;;;;;5031393;28;20068;-48
2023/07/26 12:01:07;;;;;;;3.22;2.20;;;16.30;99.90;;;;;;5031065;28;20033;-51
2023/07/26 12:03:32;;;;;;;5.60;2.40;;;16.40;99.90;;;;;;5031280;28;20037;-52
2023/07/26 12:05:58;;;;;;;3.85;2.20;;;16.60;99.90;;;;;;5031806;28;20421;-48
2023/07/26 12:08:27;;;;;;;2.05;1.85;;;16.70;99.90;;;;;;5031968;28;20021;-45
2023/07/26 12:10:53;;;;;;;4.15;2.83;;;16.90;99.90;;;;;;5031498;28;20029;-45
2023/07/26 12:13:20;;;;;;;2.50;2.28;;;17.10;99.90;;;;;;5031568;28;20040;-46
2023/07/26 12:15:59;;;;;;;2.15;1.95;;;17.30;99.90;;;;;;5013962;28;20426;-49
2023/07/26 12:18:26;;;;;;;2.05;1.75;;;17.50;99.90;;;;;;5031413;28;20034;-47
2023/07/26 12:20:56;;;;;;;7.82;2.03;;;17.60;99.90;;;;;;5031969;28;20021;-47
2023/07/26 12:23:22;;;;;;;2.47;1.80;;;17.80;99.90;;;;;;5031947;28;20392;-48
2023/07/26 12:25:56;;;;;;;5.82;1.90;;;17.90;99.90;;;;;;5013278;28;20025;-49
2023/07/26 12:28:24;;;;;;;1.88;1.60;;;18.10;99.90;;;;;;5014554;28;20026;-46
2023/07/26 12:30:57;;;;;;;2.03;1.80;;;18.10;99.90;;;;;;5017743;28;20025;-45
2023/07/26 12:33:24;;;;;;;3.78;1.52;;;18.20;99.90;;;;;;5024153;28;20037;-47
2023/07/26 12:35:54;;;;;;;1.90;1.50;;;18.10;99.90;;;;;;5020479;28;20554;-44
2023/07/26 12:38:21;;;;;;;2.63;1.80;;;18.20;99.90;;;;;;5016545;28;20453;-51
2023/07/26 12:40:48;;;;;;;1.90;1.67;;;18.20;99.90;;;;;;5018748;28;20397;-48
2023/07/26 12:43:30;;;;;;;1.50;1.40;;;18.30;99.90;;;;;;5029524;28;20045;-46
2023/07/26 12:45:58;;;;;;;1.58;1.48;;;18.50;99.90;;;;;;5030795;28;20493;-47
2023/07/26 12:48:24;;;;;;;6.63;1.90;;;18.40;99.90;;;;;;5030853;28;20489;-46